sensor_id;sensor_type;location;lat;lon;timestamp;temperature;humidity
1329;DHT22;658;48.820;9.354;2023-10-19T00:01:47;22.60;46.80
1329;DHT22;658;48.820;9.354;2023-10-19T00:05:48;22.60;46.80
1329;DHT22;658;48.820;9.354;2023-10-19T00:09:48;22.60;46.80
1329;DHT22;658;48.820;9.354;2023-10-19T00:13:53;22.60;47.00
1329;DHT22;658;48.820;9.354;2023-10-19T00:17:55;22.50;46.90
1329;DHT22;658;48.820;9.354;2023-10-19T00:21:55;22.50;47.00
1329;DHT22;658;48.820;9.354;2023-10-19T00:26:03;22.50;47.00
1329;DHT22;658;48.820;9.354;2023-10-19T00:30:14;22.50;47.10
1329;DHT22;658;48.820;9.354;2023-10-19T00:34:18;22.50;47.20
1329;DHT22;658;48.820;9.354;2023-10-19T00:38:22;22.50;47.30
1329;DHT22;658;48.820;9.354;2023-10-19T00:42:35;22.40;47.20
1329;DHT22;658;48.820;9.354;2023-10-19T00:46:45;22.40;47.20
1329;DHT22;658;48.820;9.354;2023-10-19T00:51:01;22.40;47.30
1329;DHT22;658;48.820;9.354;2023-10-19T00:55:23;22.40;47.30
1329;DHT22;658;48.820;9.354;2023-10-19T00:59:26;22.40;47.40
1329;DHT22;658;48.820;9.354;2023-10-19T01:03:31;22.40;47.30
1329;DHT22;658;48.820;9.354;2023-10-19T01:07:37;22.40;47.30
1329;DHT22;658;48.820;9.354;2023-10-19T01:11:45;22.40;47.50
1329;DHT22;658;48.820;9.354;2023-10-19T01:15:48;22.40;47.40
1329;DHT22;658;48.820;9.354;2023-10-19T01:19:49;22.40;47.40
1329;DHT22;658;48.820;9.354;2023-10-19T01:23:50;22.40;47.50
1329;DHT22;658;48.820;9.354;2023-10-19T01:27:51;22.40;47.50
1329;DHT22;658;48.820;9.354;2023-10-19T01:32:00;22.40;47.50
1329;DHT22;658;48.820;9.354;2023-10-19T01:36:07;22.40;48.10
1329;DHT22;658;48.820;9.354;2023-10-19T01:40:11;22.40;47.70
1329;DHT22;658;48.820;9.354;2023-10-19T01:44:15;22.40;47.70
1329;DHT22;658;48.820;9.354;2023-10-19T01:48:19;22.40;47.70
1329;DHT22;658;48.820;9.354;2023-10-19T01:52:20;22.50;47.90
1329;DHT22;658;48.820;9.354;2023-10-19T01:56:25;22.50;48.00
1329;DHT22;658;48.820;9.354;2023-10-19T02:00:25;22.50;48.00
1329;DHT22;658;48.820;9.354;2023-10-19T02:04:30;22.50;48.10
1329;DHT22;658;48.820;9.354;2023-10-19T02:08:35;22.50;48.10
1329;DHT22;658;48.820;9.354;2023-10-19T02:12:39;22.50;48.10
1329;DHT22;658;48.820;9.354;2023-10-19T02:16:47;22.50;48.10
1329;DHT22;658;48.820;9.354;2023-10-19T02:20:47;22.50;48.20
1329;DHT22;658;48.820;9.354;2023-10-19T02:24:52;22.50;48.20
1329;DHT22;658;48.820;9.354;2023-10-19T02:28:53;22.50;48.20
1329;DHT22;658;48.820;9.354;2023-10-19T02:32:58;22.50;48.20
1329;DHT22;658;48.820;9.354;2023-10-19T02:36:59;22.50;48.20
1329;DHT22;658;48.820;9.354;2023-10-19T02:41:01;22.60;48.40
1329;DHT22;658;48.820;9.354;2023-10-19T02:45:03;22.60;48.30
1329;DHT22;658;48.820;9.354;2023-10-19T02:49:07;22.50;48.30
1329;DHT22;658;48.820;9.354;2023-10-19T02:53:11;22.60;48.40
1329;DHT22;658;48.820;9.354;2023-10-19T02:57:13;22.60;48.30
1329;DHT22;658;48.820;9.354;2023-10-19T03:01:16;22.60;48.40
1329;DHT22;658;48.820;9.354;2023-10-19T03:05:25;22.60;48.40
1329;DHT22;658;48.820;9.354;2023-10-19T03:09:26;22.60;48.40
1329;DHT22;658;48.820;9.354;2023-10-19T03:13:27;22.60;48.40
1329;DHT22;658;48.820;9.354;2023-10-19T03:17:28;22.60;48.40
1329;DHT22;658;48.820;9.354;2023-10-19T03:21:30;22.60;48.40
1329;DHT22;658;48.820;9.354;2023-10-19T03:25:42;22.60;48.50
1329;DHT22;658;48.820;9.354;2023-10-19T03:29:57;22.60;48.50
1329;DHT22;658;48.820;9.354;2023-10-19T03:34:01;22.60;48.40
1329;DHT22;658;48.820;9.354;2023-10-19T03:38:05;22.60;48.40
1329;DHT22;658;48.820;9.354;2023-10-19T03:42:11;22.60;48.50
1329;DHT22;658;48.820;9.354;2023-10-19T03:46:14;22.60;48.50
1329;DHT22;658;48.820;9.354;2023-10-19T03:50:22;22.60;48.50
1329;DHT22;658;48.820;9.354;2023-10-19T03:54:26;22.60;48.50
1329;DHT22;658;48.820;9.354;2023-10-19T03:58:27;22.60;48.50
1329;DHT22;658;48.820;9.354;2023-10-19T04:02:30;22.60;48.50
1329;DHT22;658;48.820;9.354;2023-10-19T04:06:36;22.60;48.50
1329;DHT22;658;48.820;9.354;2023-10-19T04:10:40;22.60;48.50
1329;DHT22;658;48.820;9.354;2023-10-19T04:14:44;22.60;48.60
1329;DHT22;658;48.820;9.354;2023-10-19T04:18:45;22.60;48.50
1329;DHT22;658;48.820;9.354;2023-10-19T04:22:49;22.60;48.50
1329;DHT22;658;48.820;9.354;2023-10-19T04:26:50;22.60;48.50
1329;DHT22;658;48.820;9.354;2023-10-19T04:30:57;22.60;48.60
1329;DHT22;658;48.820;9.354;2023-10-19T04:35:03;22.60;48.50
1329;DHT22;658;48.820;9.354;2023-10-19T04:39:04;22.60;48.70
1329;DHT22;658;48.820;9.354;2023-10-19T04:43:04;22.60;48.60
1329;DHT22;658;48.820;9.354;2023-10-19T04:47:08;22.60;48.70
1329;DHT22;658;48.820;9.354;2023-10-19T04:51:08;22.60;49.30
1329;DHT22;658;48.820;9.354;2023-10-19T04:55:09;22.60;49.40
1329;DHT22;658;48.820;9.354;2023-10-19T04:59:10;22.60;49.40
1329;DHT22;658;48.820;9.354;2023-10-19T05:03:13;22.60;49.50
1329;DHT22;658;48.820;9.354;2023-10-19T05:07:18;22.70;49.60
1329;DHT22;658;48.820;9.354;2023-10-19T05:11:19;22.70;49.60
1329;DHT22;658;48.820;9.354;2023-10-19T05:15:20;22.70;49.60
1329;DHT22;658;48.820;9.354;2023-10-19T05:19:20;22.70;49.60
1329;DHT22;658;48.820;9.354;2023-10-19T05:23:24;22.70;49.60
1329;DHT22;658;48.820;9.354;2023-10-19T05:27:25;22.70;49.60
1329;DHT22;658;48.820;9.354;2023-10-19T05:31:26;22.70;49.50
1329;DHT22;658;48.820;9.354;2023-10-19T05:35:31;22.70;49.50
1329;DHT22;658;48.820;9.354;2023-10-19T05:39:35;22.70;49.40
1329;DHT22;658;48.820;9.354;2023-10-19T05:43:38;22.70;49.30
1329;DHT22;658;48.820;9.354;2023-10-19T05:47:41;22.70;49.30
1329;DHT22;658;48.820;9.354;2023-10-19T05:51:42;22.80;49.30
1329;DHT22;658;48.820;9.354;2023-10-19T05:55:45;22.80;49.20
1329;DHT22;658;48.820;9.354;2023-10-19T05:59:46;22.80;49.20
1329;DHT22;658;48.820;9.354;2023-10-19T06:03:48;22.90;49.30
1329;DHT22;658;48.820;9.354;2023-10-19T06:07:49;22.90;49.20
1329;DHT22;658;48.820;9.354;2023-10-19T06:11:52;22.90;49.20
1329;DHT22;658;48.820;9.354;2023-10-19T06:15:54;22.90;49.10
1329;DHT22;658;48.820;9.354;2023-10-19T06:19:55;23.00;49.20
1329;DHT22;658;48.820;9.354;2023-10-19T06:23:56;23.00;49.20
1329;DHT22;658;48.820;9.354;2023-10-19T06:27:59;23.00;49.10
1329;DHT22;658;48.820;9.354;2023-10-19T06:32:00;23.00;49.10
1329;DHT22;658;48.820;9.354;2023-10-19T06:36:00;23.00;49.10
1329;DHT22;658;48.820;9.354;2023-10-19T06:40:03;23.00;49.10
1329;DHT22;658;48.820;9.354;2023-10-19T06:44:06;23.00;49.30
1329;DHT22;658;48.820;9.354;2023-10-19T06:48:07;23.00;49.30
1329;DHT22;658;48.820;9.354;2023-10-19T06:52:08;23.10;49.30
1329;DHT22;658;48.820;9.354;2023-10-19T06:56:11;23.10;49.30
1329;DHT22;658;48.820;9.354;2023-10-19T07:00:13;23.10;49.30
1329;DHT22;658;48.820;9.354;2023-10-19T07:04:19;23.10;49.20
1329;DHT22;658;48.820;9.354;2023-10-19T07:08:20;23.10;49.20
1329;DHT22;658;48.820;9.354;2023-10-19T07:12:21;23.20;49.30
1329;DHT22;658;48.820;9.354;2023-10-19T07:16:24;23.20;49.80
1329;DHT22;658;48.820;9.354;2023-10-19T07:20:24;23.20;49.20
1329;DHT22;658;48.820;9.354;2023-10-19T07:24:41;23.20;49.20
1329;DHT22;658;48.820;9.354;2023-10-19T07:28:42;23.20;49.20
1329;DHT22;658;48.820;9.354;2023-10-19T07:32:42;23.20;49.30
1329;DHT22;658;48.820;9.354;2023-10-19T07:36:43;23.20;49.30
1329;DHT22;658;48.820;9.354;2023-10-19T07:40:44;23.20;49.30
1329;DHT22;658;48.820;9.354;2023-10-19T07:44:46;23.30;49.30
1329;DHT22;658;48.820;9.354;2023-10-19T07:48:47;23.30;49.20
1329;DHT22;658;48.820;9.354;2023-10-19T07:52:50;23.30;49.20
1329;DHT22;658;48.820;9.354;2023-10-19T07:56:51;23.30;49.20
1329;DHT22;658;48.820;9.354;2023-10-19T08:00:51;23.40;49.20
1329;DHT22;658;48.820;9.354;2023-10-19T08:04:53;23.40;49.10
1329;DHT22;658;48.820;9.354;2023-10-19T08:08:54;23.40;49.20
1329;DHT22;658;48.820;9.354;2023-10-19T08:12:55;23.50;49.10
1329;DHT22;658;48.820;9.354;2023-10-19T08:16:56;23.50;49.10
1329;DHT22;658;48.820;9.354;2023-10-19T08:20:57;23.50;49.10
1329;DHT22;658;48.820;9.354;2023-10-19T08:24:58;23.60;49.00
1329;DHT22;658;48.820;9.354;2023-10-19T08:29:01;23.60;49.00
1329;DHT22;658;48.820;9.354;2023-10-19T08:33:02;23.60;48.90
1329;DHT22;658;48.820;9.354;2023-10-19T08:37:02;23.70;49.00
1329;DHT22;658;48.820;9.354;2023-10-19T08:41:04;23.70;48.90
1329;DHT22;658;48.820;9.354;2023-10-19T08:45:05;23.70;48.80
1329;DHT22;658;48.820;9.354;2023-10-19T08:49:10;23.80;49.00
1329;DHT22;658;48.820;9.354;2023-10-19T08:53:12;23.80;48.90
1329;DHT22;658;48.820;9.354;2023-10-19T08:57:17;23.80;48.80
1329;DHT22;658;48.820;9.354;2023-10-19T09:01:19;23.80;48.60
1329;DHT22;658;48.820;9.354;2023-10-19T09:05:20;23.90;48.60
1329;DHT22;658;48.820;9.354;2023-10-19T09:09:23;23.90;48.50
1329;DHT22;658;48.820;9.354;2023-10-19T09:13:27;24.00;48.40
1329;DHT22;658;48.820;9.354;2023-10-19T09:17:29;24.00;48.30
1329;DHT22;658;48.820;9.354;2023-10-19T09:21:30;24.10;48.40
1329;DHT22;658;48.820;9.354;2023-10-19T09:25:33;24.10;48.30
1329;DHT22;658;48.820;9.354;2023-10-19T09:29:36;24.10;48.30
1329;DHT22;658;48.820;9.354;2023-10-19T09:33:37;24.20;48.40
1329;DHT22;658;48.820;9.354;2023-10-19T09:37:41;24.30;48.50
1329;DHT22;658;48.820;9.354;2023-10-19T09:41:42;24.30;48.50
1329;DHT22;658;48.820;9.354;2023-10-19T09:45:48;24.30;48.40
1329;DHT22;658;48.820;9.354;2023-10-19T09:49:52;24.40;48.60
1329;DHT22;658;48.820;9.354;2023-10-19T09:54:11;24.40;48.40
1329;DHT22;658;48.820;9.354;2023-10-19T09:58:20;24.50;48.50
1329;DHT22;658;48.820;9.354;2023-10-19T10:02:23;24.50;48.30
1329;DHT22;658;48.820;9.354;2023-10-19T10:06:29;24.60;48.40
1329;DHT22;658;48.820;9.354;2023-10-19T10:10:32;24.60;48.40
1329;DHT22;658;48.820;9.354;2023-10-19T10:14:33;24.70;48.50
1329;DHT22;658;48.820;9.354;2023-10-19T10:18:35;24.70;48.50
1329;DHT22;658;48.820;9.354;2023-10-19T10:22:36;24.70;48.50
1329;DHT22;658;48.820;9.354;2023-10-19T10:26:57;24.70;48.70
1329;DHT22;658;48.820;9.354;2023-10-19T10:31:11;24.70;48.60
1329;DHT22;658;48.820;9.354;2023-10-19T10:39:40;24.60;48.50
1329;DHT22;658;48.820;9.354;2023-10-19T10:43:51;24.50;48.40
1329;DHT22;658;48.820;9.354;2023-10-19T10:47:58;24.50;48.40
1329;DHT22;658;48.820;9.354;2023-10-19T10:52:01;24.50;48.40
1329;DHT22;658;48.820;9.354;2023-10-19T10:56:01;24.50;48.40
1329;DHT22;658;48.820;9.354;2023-10-19T11:00:12;24.50;48.50
1329;DHT22;658;48.820;9.354;2023-10-19T11:04:16;24.50;48.60
1329;DHT22;658;48.820;9.354;2023-10-19T11:08:17;24.40;48.50
1329;DHT22;658;48.820;9.354;2023-10-19T11:12:19;24.40;48.60
1329;DHT22;658;48.820;9.354;2023-10-19T11:16:23;24.40;48.70
1329;DHT22;658;48.820;9.354;2023-10-19T11:20:25;24.30;48.60
1329;DHT22;658;48.820;9.354;2023-10-19T11:24:27;24.30;48.80
1329;DHT22;658;48.820;9.354;2023-10-19T11:28:33;24.30;48.80
1329;DHT22;658;48.820;9.354;2023-10-19T11:32:38;24.20;48.90
1329;DHT22;658;48.820;9.354;2023-10-19T11:36:40;24.20;48.90
1329;DHT22;658;48.820;9.354;2023-10-19T11:40:40;24.20;48.90
1329;DHT22;658;48.820;9.354;2023-10-19T11:44:41;24.10;49.00
1329;DHT22;658;48.820;9.354;2023-10-19T11:48:42;24.10;49.10
1329;DHT22;658;48.820;9.354;2023-10-19T11:52:46;24.10;49.10
1329;DHT22;658;48.820;9.354;2023-10-19T11:56:47;24.10;49.20
1329;DHT22;658;48.820;9.354;2023-10-19T12:00:49;24.10;49.30
1329;DHT22;658;48.820;9.354;2023-10-19T12:04:52;24.10;49.50
1329;DHT22;658;48.820;9.354;2023-10-19T12:08:52;24.10;49.70
1329;DHT22;658;48.820;9.354;2023-10-19T12:12:59;24.10;50.00
1329;DHT22;658;48.820;9.354;2023-10-19T12:17:01;24.10;50.20
1329;DHT22;658;48.820;9.354;2023-10-19T12:21:02;24.10;50.70
1329;DHT22;658;48.820;9.354;2023-10-19T12:25:05;24.10;50.40
1329;DHT22;658;48.820;9.354;2023-10-19T12:29:05;24.10;50.50
1329;DHT22;658;48.820;9.354;2023-10-19T12:33:11;24.10;50.50
1329;DHT22;658;48.820;9.354;2023-10-19T12:37:12;24.20;50.70
1329;DHT22;658;48.820;9.354;2023-10-19T12:41:13;24.20;50.70
1329;DHT22;658;48.820;9.354;2023-10-19T12:45:17;24.20;50.80
1329;DHT22;658;48.820;9.354;2023-10-19T12:49:19;24.20;51.10
1329;DHT22;658;48.820;9.354;2023-10-19T12:53:26;24.20;51.60
1329;DHT22;658;48.820;9.354;2023-10-19T12:57:27;24.20;51.20
1329;DHT22;658;48.820;9.354;2023-10-19T13:01:27;24.20;51.10
1329;DHT22;658;48.820;9.354;2023-10-19T13:05:35;24.20;51.40
1329;DHT22;658;48.820;9.354;2023-10-19T13:09:37;24.20;51.10
1329;DHT22;658;48.820;9.354;2023-10-19T13:13:37;24.20;51.10
1329;DHT22;658;48.820;9.354;2023-10-19T13:17:39;24.20;51.20
1329;DHT22;658;48.820;9.354;2023-10-19T13:21:40;24.20;51.00
1329;DHT22;658;48.820;9.354;2023-10-19T13:25:44;24.10;50.80
1329;DHT22;658;48.820;9.354;2023-10-19T13:29:47;24.10;50.80
1329;DHT22;658;48.820;9.354;2023-10-19T13:33:48;24.10;51.40
1329;DHT22;658;48.820;9.354;2023-10-19T13:37:49;24.10;50.90
1329;DHT22;658;48.820;9.354;2023-10-19T13:41:49;24.00;50.80
1329;DHT22;658;48.820;9.354;2023-10-19T13:45:52;24.00;51.00
1329;DHT22;658;48.820;9.354;2023-10-19T13:49:53;24.00;50.90
1329;DHT22;658;48.820;9.354;2023-10-19T13:53:54;24.00;51.10
1329;DHT22;658;48.820;9.354;2023-10-19T13:57:55;24.10;51.10
1329;DHT22;658;48.820;9.354;2023-10-19T14:01:58;24.10;51.20
1329;DHT22;658;48.820;9.354;2023-10-19T14:06:01;24.10;51.20
1329;DHT22;658;48.820;9.354;2023-10-19T14:10:01;24.00;51.10
1329;DHT22;658;48.820;9.354;2023-10-19T14:14:02;24.10;51.20
1329;DHT22;658;48.820;9.354;2023-10-19T14:18:03;24.10;51.20
1329;DHT22;658;48.820;9.354;2023-10-19T14:22:04;24.10;51.20
1329;DHT22;658;48.820;9.354;2023-10-19T14:26:09;24.10;51.30
1329;DHT22;658;48.820;9.354;2023-10-19T14:30:12;24.10;51.20
1329;DHT22;658;48.820;9.354;2023-10-19T14:34:13;24.10;51.10
1329;DHT22;658;48.820;9.354;2023-10-19T14:38:13;24.10;51.20
1329;DHT22;658;48.820;9.354;2023-10-19T14:42:15;24.00;51.10
1329;DHT22;658;48.820;9.354;2023-10-19T14:46:16;24.00;51.10
1329;DHT22;658;48.820;9.354;2023-10-19T14:50:16;24.00;51.20
1329;DHT22;658;48.820;9.354;2023-10-19T14:54:18;23.90;51.10
1329;DHT22;658;48.820;9.354;2023-10-19T14:58:18;23.90;51.20
1329;DHT22;658;48.820;9.354;2023-10-19T15:02:20;23.90;51.20
1329;DHT22;658;48.820;9.354;2023-10-19T15:06:23;23.90;51.50
1329;DHT22;658;48.820;9.354;2023-10-19T15:10:25;23.90;51.40
1329;DHT22;658;48.820;9.354;2023-10-19T15:14:26;23.90;51.50
1329;DHT22;658;48.820;9.354;2023-10-19T15:18:27;23.90;51.60
1329;DHT22;658;48.820;9.354;2023-10-19T15:22:27;23.90;51.60
1329;DHT22;658;48.820;9.354;2023-10-19T15:26:31;23.90;51.50
1329;DHT22;658;48.820;9.354;2023-10-19T15:30:32;24.00;51.60
1329;DHT22;658;48.820;9.354;2023-10-19T15:34:35;24.00;51.60
1329;DHT22;658;48.820;9.354;2023-10-19T15:38:36;24.00;51.70
1329;DHT22;658;48.820;9.354;2023-10-19T15:42:37;24.00;51.70
1329;DHT22;658;48.820;9.354;2023-10-19T15:46:41;24.00;51.70
1329;DHT22;658;48.820;9.354;2023-10-19T15:50:44;24.00;51.80
1329;DHT22;658;48.820;9.354;2023-10-19T15:54:45;24.00;51.80
1329;DHT22;658;48.820;9.354;2023-10-19T15:58:50;24.00;51.90
1329;DHT22;658;48.820;9.354;2023-10-19T16:02:53;24.00;52.00
1329;DHT22;658;48.820;9.354;2023-10-19T16:06:54;24.00;52.00
1329;DHT22;658;48.820;9.354;2023-10-19T16:10:55;24.00;52.00
1329;DHT22;658;48.820;9.354;2023-10-19T16:14:56;24.00;52.00
1329;DHT22;658;48.820;9.354;2023-10-19T16:18:56;24.00;52.00
1329;DHT22;658;48.820;9.354;2023-10-19T16:22:57;24.00;52.00
1329;DHT22;658;48.820;9.354;2023-10-19T16:26:59;24.00;52.10
1329;DHT22;658;48.820;9.354;2023-10-19T16:31:03;23.90;51.80
1329;DHT22;658;48.820;9.354;2023-10-19T16:35:05;23.80;53.20
1329;DHT22;658;48.820;9.354;2023-10-19T16:39:09;23.70;53.40
1329;DHT22;658;48.820;9.354;2023-10-19T16:43:10;23.60;53.10
1329;DHT22;658;48.820;9.354;2023-10-19T16:47:11;23.60;53.00
1329;DHT22;658;48.820;9.354;2023-10-19T16:51:12;23.70;53.10
1329;DHT22;658;48.820;9.354;2023-10-19T16:55:12;23.60;52.90
1329;DHT22;658;48.820;9.354;2023-10-19T16:59:14;23.60;52.80
1329;DHT22;658;48.820;9.354;2023-10-19T17:03:15;23.60;52.80
1329;DHT22;658;48.820;9.354;2023-10-19T17:07:18;23.60;52.80
1329;DHT22;658;48.820;9.354;2023-10-19T17:11:19;23.60;53.00
1329;DHT22;658;48.820;9.354;2023-10-19T17:15:20;23.70;53.60
1329;DHT22;658;48.820;9.354;2023-10-19T17:19:20;23.70;53.00
1329;DHT22;658;48.820;9.354;2023-10-19T17:23:23;23.70;53.00
1329;DHT22;658;48.820;9.354;2023-10-19T17:27:24;23.70;53.00
1329;DHT22;658;48.820;9.354;2023-10-19T17:31:26;23.70;53.10
1329;DHT22;658;48.820;9.354;2023-10-19T17:35:27;23.70;53.10
1329;DHT22;658;48.820;9.354;2023-10-19T17:39:28;23.60;52.90
1329;DHT22;658;48.820;9.354;2023-10-19T17:43:30;23.60;52.90
1329;DHT22;658;48.820;9.354;2023-10-19T17:47:30;23.60;53.00
1329;DHT22;658;48.820;9.354;2023-10-19T17:51:32;23.60;53.10
1329;DHT22;658;48.820;9.354;2023-10-19T17:55:35;23.60;53.10
1329;DHT22;658;48.820;9.354;2023-10-19T17:59:36;23.60;53.10
1329;DHT22;658;48.820;9.354;2023-10-19T18:03:37;23.50;53.10
1329;DHT22;658;48.820;9.354;2023-10-19T18:07:38;23.50;53.10
1329;DHT22;658;48.820;9.354;2023-10-19T18:11:39;23.50;53.10
1329;DHT22;658;48.820;9.354;2023-10-19T18:15:39;23.50;53.10
1329;DHT22;658;48.820;9.354;2023-10-19T18:19:40;23.50;53.10
1329;DHT22;658;48.820;9.354;2023-10-19T18:23:44;23.50;53.10
1329;DHT22;658;48.820;9.354;2023-10-19T18:27:48;23.50;53.10
1329;DHT22;658;48.820;9.354;2023-10-19T18:31:48;23.50;53.10
1329;DHT22;658;48.820;9.354;2023-10-19T18:35:57;23.50;53.10
1329;DHT22;658;48.820;9.354;2023-10-19T18:40:00;23.40;53.10
1329;DHT22;658;48.820;9.354;2023-10-19T18:44:01;23.50;53.10
1329;DHT22;658;48.820;9.354;2023-10-19T18:48:02;23.50;53.10
1329;DHT22;658;48.820;9.354;2023-10-19T18:52:05;23.40;53.00
1329;DHT22;658;48.820;9.354;2023-10-19T18:56:07;23.40;53.10
1329;DHT22;658;48.820;9.354;2023-10-19T19:00:10;23.40;53.10
1329;DHT22;658;48.820;9.354;2023-10-19T19:04:11;23.40;53.10
1329;DHT22;658;48.820;9.354;2023-10-19T19:08:12;23.40;53.10
1329;DHT22;658;48.820;9.354;2023-10-19T19:12:12;23.40;53.10
1329;DHT22;658;48.820;9.354;2023-10-19T19:16:13;23.40;53.10
1329;DHT22;658;48.820;9.354;2023-10-19T19:20:14;23.40;53.50
1329;DHT22;658;48.820;9.354;2023-10-19T19:24:21;23.40;53.30
1329;DHT22;658;48.820;9.354;2023-10-19T19:28:22;23.40;53.40
1329;DHT22;658;48.820;9.354;2023-10-19T19:32:24;23.40;53.40
1329;DHT22;658;48.820;9.354;2023-10-19T19:36:24;23.40;53.30
1329;DHT22;658;48.820;9.354;2023-10-19T19:40:28;23.40;53.30
1329;DHT22;658;48.820;9.354;2023-10-19T19:44:30;23.40;53.30
1329;DHT22;658;48.820;9.354;2023-10-19T19:48:33;23.40;53.30
1329;DHT22;658;48.820;9.354;2023-10-19T19:52:34;23.40;53.30
1329;DHT22;658;48.820;9.354;2023-10-19T19:56:37;23.40;53.20
1329;DHT22;658;48.820;9.354;2023-10-19T20:00:41;23.30;53.20
1329;DHT22;658;48.820;9.354;2023-10-19T20:04:44;23.40;53.30
1329;DHT22;658;48.820;9.354;2023-10-19T20:08:47;23.30;53.20
1329;DHT22;658;48.820;9.354;2023-10-19T20:12:48;23.30;53.50
1329;DHT22;658;48.820;9.354;2023-10-19T20:16:49;23.30;53.20
1329;DHT22;658;48.820;9.354;2023-10-19T20:20:49;23.40;53.50
1329;DHT22;658;48.820;9.354;2023-10-19T20:24:50;23.40;53.70
1329;DHT22;658;48.820;9.354;2023-10-19T20:28:50;23.40;53.80
1329;DHT22;658;48.820;9.354;2023-10-19T20:32:51;23.40;53.90
1329;DHT22;658;48.820;9.354;2023-10-19T20:36:52;23.50;53.80
1329;DHT22;658;48.820;9.354;2023-10-19T20:40:53;23.50;53.60
1329;DHT22;658;48.820;9.354;2023-10-19T20:44:53;23.40;53.50
1329;DHT22;658;48.820;9.354;2023-10-19T20:48:55;23.50;53.60
1329;DHT22;658;48.820;9.354;2023-10-19T20:52:56;23.40;53.40
1329;DHT22;658;48.820;9.354;2023-10-19T20:57:01;23.40;53.30
1329;DHT22;658;48.820;9.354;2023-10-19T21:01:06;23.40;53.30
1329;DHT22;658;48.820;9.354;2023-10-19T21:05:09;23.40;53.30
1329;DHT22;658;48.820;9.354;2023-10-19T21:09:17;23.30;53.30
1329;DHT22;658;48.820;9.354;2023-10-19T21:13:17;23.30;53.30
1329;DHT22;658;48.820;9.354;2023-10-19T21:17:18;23.30;53.20
1329;DHT22;658;48.820;9.354;2023-10-19T21:21:19;23.30;53.30
1329;DHT22;658;48.820;9.354;2023-10-19T21:25:19;23.30;53.20
1329;DHT22;658;48.820;9.354;2023-10-19T21:29:20;23.30;53.30
1329;DHT22;658;48.820;9.354;2023-10-19T21:33:21;23.30;53.20
1329;DHT22;658;48.820;9.354;2023-10-19T21:37:21;23.30;53.20
1329;DHT22;658;48.820;9.354;2023-10-19T21:41:23;23.20;53.20
1329;DHT22;658;48.820;9.354;2023-10-19T21:45:25;23.20;53.20
1329;DHT22;658;48.820;9.354;2023-10-19T21:49:25;23.20;53.20
1329;DHT22;658;48.820;9.354;2023-10-19T21:53:26;23.20;53.20
1329;DHT22;658;48.820;9.354;2023-10-19T21:57:26;23.10;53.20
1329;DHT22;658;48.820;9.354;2023-10-19T22:01:28;23.20;53.20
1329;DHT22;658;48.820;9.354;2023-10-19T22:05:30;23.10;53.20
1329;DHT22;658;48.820;9.354;2023-10-19T22:09:34;23.10;53.20
1329;DHT22;658;48.820;9.354;2023-10-19T22:13:38;23.10;53.30
1329;DHT22;658;48.820;9.354;2023-10-19T22:17:38;23.10;53.30
1329;DHT22;658;48.820;9.354;2023-10-19T22:21:39;23.00;53.20
1329;DHT22;658;48.820;9.354;2023-10-19T22:25:40;23.10;53.30
1329;DHT22;658;48.820;9.354;2023-10-19T22:29:43;23.00;53.20
1329;DHT22;658;48.820;9.354;2023-10-19T22:33:46;23.00;53.20
1329;DHT22;658;48.820;9.354;2023-10-19T22:37:47;23.00;53.30
1329;DHT22;658;48.820;9.354;2023-10-19T22:41:48;23.00;53.40
1329;DHT22;658;48.820;9.354;2023-10-19T22:45:48;22.90;53.30
1329;DHT22;658;48.820;9.354;2023-10-19T22:49:51;22.90;53.30
1329;DHT22;658;48.820;9.354;2023-10-19T22:53:52;22.90;53.30
1329;DHT22;658;48.820;9.354;2023-10-19T22:57:53;22.90;53.30
1329;DHT22;658;48.820;9.354;2023-10-19T23:01:54;22.90;53.40
1329;DHT22;658;48.820;9.354;2023-10-19T23:05:55;22.90;53.40
1329;DHT22;658;48.820;9.354;2023-10-19T23:09:56;22.90;53.30
1329;DHT22;658;48.820;9.354;2023-10-19T23:13:57;22.90;53.40
1329;DHT22;658;48.820;9.354;2023-10-19T23:18:02;22.90;53.40
1329;DHT22;658;48.820;9.354;2023-10-19T23:22:05;22.90;53.40
1329;DHT22;658;48.820;9.354;2023-10-19T23:26:06;22.80;53.30
1329;DHT22;658;48.820;9.354;2023-10-19T23:30:08;22.80;53.40
1329;DHT22;658;48.820;9.354;2023-10-19T23:34:09;22.80;53.40
1329;DHT22;658;48.820;9.354;2023-10-19T23:38:10;22.80;53.50
1329;DHT22;658;48.820;9.354;2023-10-19T23:42:11;22.80;53.60
1329;DHT22;658;48.820;9.354;2023-10-19T23:46:14;22.80;53.60
1329;DHT22;658;48.820;9.354;2023-10-19T23:50:15;22.80;53.60
1329;DHT22;658;48.820;9.354;2023-10-19T23:54:20;22.80;53.60
1329;DHT22;658;48.820;9.354;2023-10-19T23:58:25;22.80;53.50
